createdAt,value
2022-11-28T00:01:33.352Z,100280.13
2022-11-28T00:04:01.710Z,100277.75
2022-11-28T00:06:31.778Z,100271.75
2022-11-28T00:09:00.567Z,100271.84
2022-11-28T00:11:28.854Z,100269.25
2022-11-28T00:13:57.372Z,100261.41
2022-11-28T00:16:26.303Z,100265.78
2022-11-28T00:18:56.151Z,100276.34
2022-11-28T00:21:24.905Z,100268.56
2022-11-28T00:23:54.837Z,100265.88
2022-11-28T00:26:24.740Z,100266.19
2022-11-28T00:28:52.969Z,100267.59
2022-11-28T00:31:23.591Z,100268.66
2022-11-28T00:33:51.932Z,100267.50
2022-11-28T00:36:20.957Z,100266.47
2022-11-28T00:38:49.337Z,100262.81
2022-11-28T00:41:20.770Z,100262.41
2022-11-28T00:43:50.836Z,100268.97
2022-11-28T00:46:20.760Z,100264.59
2022-11-28T00:48:49.390Z,100261.19
2022-11-28T00:51:19.871Z,100252.16
2022-11-28T00:53:52.093Z,100253.44
2022-11-28T00:56:24.233Z,100249.53
2022-11-28T00:58:52.951Z,100256.13
2022-11-28T01:01:23.421Z,100239.19
2022-11-28T01:03:53.232Z,100244.06
2022-11-28T01:06:25.665Z,100239.59
2022-11-28T01:08:54.219Z,100235.69
2022-11-28T01:11:24.348Z,100240.06
2022-11-28T01:13:54.666Z,100243.63
2022-11-28T01:16:22.799Z,100244.13
2022-11-28T01:18:51.109Z,100237.78
2022-11-28T01:21:20.263Z,100233.69
2022-11-28T01:23:48.494Z,100238.84
2022-11-28T01:26:19.893Z,100233.44
2022-11-28T01:28:50.054Z,100237.81
2022-11-28T01:31:19.895Z,100233.69
2022-11-28T01:33:48.201Z,100238.63
2022-11-28T01:36:16.470Z,100240.53
2022-11-28T01:38:44.648Z,100236.91
2022-11-28T01:41:13.488Z,100233.88
2022-11-28T01:44:05.638Z,100236.72
2022-11-28T01:46:37.742Z,100232.81
2022-11-28T01:49:15.137Z,100234.44
2022-11-28T01:51:47.737Z,100228.84
2022-11-28T01:54:17.750Z,100226.47
2022-11-28T01:56:51.258Z,100225.66
2022-11-28T01:59:22.655Z,100222.66
2022-11-28T02:01:50.891Z,100220.34
2022-11-28T02:04:19.302Z,100220.28
2022-11-28T02:06:47.537Z,100220.03
2022-11-28T02:09:17.309Z,100219.75
2022-11-28T02:12:06.268Z,100219.06
2022-11-28T02:14:54.045Z,100215.56
2022-11-28T02:17:36.842Z,100204.72
2022-11-28T02:20:33.895Z,100204.41
2022-11-28T02:23:07.366Z,100205.34
2022-11-28T02:26:04.999Z,100202.44
2022-11-28T02:29:05.125Z,100205.81
2022-11-28T02:32:11.979Z,100208.50
2022-11-28T02:34:49.693Z,100209.31
2022-11-28T02:37:27.530Z,100206.84
2022-11-28T02:40:04.837Z,100201.44
2022-11-28T02:42:42.478Z,100199.09
2022-11-28T02:45:14.854Z,100206.03
2022-11-28T02:47:46.991Z,100210.16
2022-11-28T02:50:23.533Z,100208.94
2022-11-28T02:52:54.930Z,100209.38
2022-11-28T02:55:24.286Z,100212.13
2022-11-28T02:57:54.898Z,100203.63
2022-11-28T03:00:30.004Z,100206.69
2022-11-28T03:03:38.285Z,100213.72
2022-11-28T03:06:17.913Z,100202.00
2022-11-28T03:08:58.730Z,100208.66
2022-11-28T03:11:47.375Z,100214.88
2022-11-28T03:14:25.588Z,100210.31
2022-11-28T03:17:04.455Z,100210.31
2022-11-28T03:19:36.852Z,100207.69
2022-11-28T03:22:15.130Z,100207.69
2022-11-28T03:24:47.946Z,100205.91
2022-11-28T03:27:19.937Z,100202.06
2022-11-28T03:29:50.904Z,100204.88
2022-11-28T03:32:24.663Z,100201.91
2022-11-28T03:35:00.914Z,100204.88
2022-11-28T03:37:34.002Z,100203.09
2022-11-28T03:40:07.250Z,100207.63
2022-11-28T03:42:39.862Z,100208.66
2022-11-28T03:45:12.008Z,100208.44
2022-11-28T03:47:46.862Z,100203.81
2022-11-28T03:50:20.453Z,100202.00
2022-11-28T03:52:55.757Z,100207.72
2022-11-28T03:55:31.767Z,100213.44
2022-11-28T03:58:06.041Z,100206.41
2022-11-28T04:00:37.396Z,100209.59
2022-11-28T04:03:13.396Z,100205.84
2022-11-28T04:05:49.542Z,100219.00
2022-11-28T04:08:23.507Z,100213.44
2022-11-28T04:10:57.823Z,100206.16
2022-11-28T04:13:30.608Z,100212.44
2022-11-28T04:16:04.643Z,100217.47
2022-11-28T04:18:40.933Z,100221.78
2022-11-28T04:21:13.975Z,100220.97
2022-11-28T04:23:47.680Z,100224.47
2022-11-28T04:26:20.986Z,100225.03
2022-11-28T04:28:51.114Z,100230.63
2022-11-28T04:31:22.531Z,100229.25
2022-11-28T04:33:55.839Z,100229.41
2022-11-28T04:36:25.893Z,100222.13
2022-11-28T04:38:57.630Z,100228.94
2022-11-28T04:41:33.449Z,100233.56
2022-11-28T04:44:08.764Z,100230.94
2022-11-28T04:46:41.602Z,100226.69
2022-11-28T04:49:09.778Z,100242.78
2022-11-28T04:51:45.712Z,100231.25
2022-11-28T04:54:23.290Z,100239.31
2022-11-28T04:56:57.404Z,100242.50
2022-11-28T04:59:28.455Z,100243.19
2022-11-28T05:01:58.498Z,100246.63
2022-11-28T05:04:26.660Z,100246.94
2022-11-28T05:07:02.439Z,100248.63
2022-11-28T05:09:32.149Z,100248.94
2022-11-28T05:12:00.206Z,100249.50
2022-11-28T05:14:28.773Z,100246.78
2022-11-28T05:16:56.799Z,100238.16
2022-11-28T05:19:24.896Z,100252.88
2022-11-28T05:21:53.645Z,100245.03
2022-11-28T05:24:22.577Z,100244.56
2022-11-28T05:26:52.414Z,100240.31
2022-11-28T05:29:20.460Z,100235.78
2022-11-28T05:31:48.461Z,100237.50
2022-11-28T05:34:16.575Z,100235.84
2022-11-28T05:36:44.525Z,100236.06
2022-11-28T05:39:12.470Z,100232.81
2022-11-28T05:41:40.517Z,100240.66
2022-11-28T05:44:11.542Z,100235.19
2022-11-28T05:46:39.478Z,100239.09
2022-11-28T05:49:07.449Z,100233.97
2022-11-28T05:51:35.470Z,100239.63
2022-11-28T05:54:03.584Z,100239.84
2022-11-28T05:56:31.831Z,100235.97
2022-11-28T05:59:00.142Z,100234.25
2022-11-28T06:01:30.930Z,100238.25
2022-11-28T06:04:01.017Z,100245.84
2022-11-28T06:06:31.427Z,100244.13
2022-11-28T06:09:00.079Z,100239.13
2022-11-28T06:11:30.170Z,100243.97
2022-11-28T06:13:58.416Z,100245.19
2022-11-28T06:16:28.509Z,100244.94
2022-11-28T06:18:59.633Z,100252.59
2022-11-28T06:21:28.951Z,100249.91
2022-11-28T06:23:58.720Z,100249.34
2022-11-28T06:26:28.310Z,100259.41
2022-11-28T06:28:56.640Z,100253.56
2022-11-28T06:31:27.356Z,100253.69
2022-11-28T06:33:57.847Z,100255.00
2022-11-28T06:36:26.480Z,100248.69
2022-11-28T06:38:54.909Z,100246.44
2022-11-28T06:41:23.894Z,100260.13
2022-11-28T06:43:52.783Z,100262.81
2022-11-28T06:46:22.623Z,100255.44
2022-11-28T06:48:52.503Z,100257.09
2022-11-28T06:51:22.439Z,100254.56
2022-11-28T06:53:50.904Z,100253.78
2022-11-28T06:56:21.180Z,100249.56
2022-11-28T06:58:55.097Z,100259.34
2022-11-28T07:01:27.078Z,100249.78
2022-11-28T07:03:55.921Z,100253.78
2022-11-28T07:06:26.915Z,100256.31
2022-11-28T07:08:55.063Z,100253.97
2022-11-28T07:11:25.034Z,100251.28
2022-11-28T07:13:54.279Z,100256.44
2022-11-28T07:16:24.569Z,100248.81
2022-11-28T07:18:53.576Z,100246.97
2022-11-28T07:21:22.151Z,100244.34
2022-11-28T07:23:51.618Z,100246.31
2022-11-28T07:26:21.542Z,100244.84
2022-11-28T07:28:50.306Z,100244.56
2022-11-28T07:31:21.518Z,100247.81
2022-11-28T07:33:52.183Z,100240.56
2022-11-28T07:36:21.582Z,100244.28
2022-11-28T07:38:52.950Z,100240.16
2022-11-28T07:41:26.251Z,100238.53
2022-11-28T07:43:56.855Z,100238.97
2022-11-28T07:46:25.748Z,100239.56
2022-11-28T07:48:54.127Z,100240.63
2022-11-28T07:51:24.201Z,100237.16
2022-11-28T07:53:54.241Z,100240.00
2022-11-28T07:56:25.172Z,100236.81
2022-11-28T07:58:53.741Z,100234.97
2022-11-28T08:01:23.607Z,100230.28
2022-11-28T08:03:52.895Z,100235.78
2022-11-28T08:06:23.744Z,100232.09
2022-11-28T08:08:53.935Z,100232.88
2022-11-28T08:11:23.993Z,100224.50
2022-11-28T08:13:55.099Z,100225.75
2022-11-28T08:16:28.315Z,100223.72
2022-11-28T08:18:57.110Z,100227.53
2022-11-28T08:21:26.739Z,100226.59
2022-11-28T08:23:59.428Z,100221.53
2022-11-28T08:26:30.984Z,100221.03
2022-11-28T08:29:00.056Z,100228.22
2022-11-28T08:31:30.471Z,100220.88
2022-11-28T08:34:00.812Z,100221.47
2022-11-28T08:36:29.604Z,100227.53
2022-11-28T08:39:23.022Z,100224.34
2022-11-28T08:41:49.893Z,100228.44
2022-11-28T08:44:18.031Z,100219.47
2022-11-28T08:46:46.081Z,100217.59
2022-11-28T08:49:14.068Z,100221.47
2022-11-28T08:51:42.185Z,100217.34
2022-11-28T08:54:11.773Z,100215.91
2022-11-28T08:56:39.875Z,100219.28
2022-11-28T08:59:08.199Z,100215.66
2022-11-28T09:01:36.237Z,100210.28
2022-11-28T09:04:05.587Z,100203.28
2022-11-28T09:06:33.922Z,100194.84
2022-11-28T09:09:03.058Z,100202.78
2022-11-28T09:11:33.099Z,100199.28
2022-11-28T09:14:01.365Z,100192.22
2022-11-28T09:16:29.664Z,100190.06
2022-11-28T09:18:59.505Z,100182.47
2022-11-28T09:21:28.107Z,100186.78
2022-11-28T09:23:57.409Z,100189.97
2022-11-28T09:26:26.538Z,100185.31
2022-11-28T09:28:56.134Z,100181.00
2022-11-28T09:31:24.591Z,100174.94
2022-11-28T09:33:52.743Z,100169.97
2022-11-28T09:36:22.845Z,100168.06
2022-11-28T09:38:51.262Z,100173.66
2022-11-28T09:41:37.825Z,100163.69
2022-11-28T09:44:16.680Z,100163.81
2022-11-28T09:46:47.646Z,100154.81
2022-11-28T09:49:25.106Z,100143.28
2022-11-28T09:51:58.613Z,100141.81
2022-11-28T09:54:36.037Z,100148.47
2022-11-28T09:57:10.105Z,100134.25
2022-11-28T09:59:39.734Z,100136.13
2022-11-28T10:02:22.537Z,100137.66
2022-11-28T10:04:59.801Z,100137.06
2022-11-28T10:07:35.472Z,100131.78
2022-11-28T10:10:15.746Z,100136.13
2022-11-28T10:12:52.610Z,100130.56
2022-11-28T10:15:38.473Z,100125.97
2022-11-28T10:18:19.378Z,100128.44
2022-11-28T10:20:49.888Z,100123.31
2022-11-28T10:23:24.241Z,100117.94
2022-11-28T10:25:56.998Z,100111.41
2022-11-28T10:28:30.713Z,100118.28
2022-11-28T10:31:05.508Z,100109.63
2022-11-28T10:33:38.306Z,100106.94
2022-11-28T10:36:08.974Z,100106.81
2022-11-28T10:38:37.756Z,100098.53
2022-11-28T10:41:14.559Z,100088.22
2022-11-28T10:43:47.382Z,100092.88
2022-11-28T10:46:42.444Z,100089.47
2022-11-28T10:49:28.360Z,100099.00
2022-11-28T10:52:09.429Z,100096.44
2022-11-28T10:55:01.638Z,100094.84
2022-11-28T10:57:36.594Z,100090.09
2022-11-28T11:00:12.364Z,100081.91
2022-11-28T11:02:46.986Z,100066.44
2022-11-28T11:05:18.588Z,100070.44
2022-11-28T11:07:51.636Z,100076.78
2022-11-28T11:10:22.872Z,100077.75
2022-11-28T11:12:53.692Z,100062.56
2022-11-28T11:15:25.712Z,100074.75
2022-11-28T11:17:55.141Z,100059.53
2022-11-28T11:20:36.694Z,100064.38
2022-11-28T11:23:13.874Z,100061.25
2022-11-28T11:25:52.775Z,100063.19
2022-11-28T11:28:41.670Z,100061.25
2022-11-28T11:31:21.873Z,100061.00
2022-11-28T11:33:54.477Z,100055.16
2022-11-28T11:36:28.306Z,100052.31
2022-11-28T11:39:18.187Z,100040.31
2022-11-28T11:41:48.920Z,100044.69
2022-11-28T11:44:35.388Z,100042.06
2022-11-28T11:47:05.676Z,100039.09
2022-11-28T11:49:36.899Z,100043.75
2022-11-28T11:52:08.134Z,100041.91
2022-11-28T11:54:36.160Z,100040.25
2022-11-28T11:57:31.501Z,100043.91
2022-11-28T11:59:57.296Z,100035.44
2022-11-28T12:02:32.513Z,100044.97
2022-11-28T12:05:05.672Z,100039.72
2022-11-28T12:07:40.406Z,100043.03
2022-11-28T12:10:14.184Z,100040.03
2022-11-28T12:12:42.470Z,100041.31
2022-11-28T12:15:18.558Z,100047.88
2022-11-28T12:17:59.766Z,100037.44
2022-11-28T12:20:39.179Z,100033.25
2022-11-28T12:23:24.177Z,100036.97
2022-11-28T12:25:59.826Z,100036.06
2022-11-28T12:28:43.629Z,100042.34
2022-11-28T12:31:20.596Z,100040.31
2022-11-28T12:34:01.891Z,100047.91
2022-11-28T12:36:37.869Z,100046.75
2022-11-28T12:39:18.501Z,100044.19
2022-11-28T12:42:09.669Z,100038.31
2022-11-28T12:44:56.307Z,100042.72
2022-11-28T12:47:35.974Z,100045.03
2022-11-28T12:50:17.229Z,100039.28
2022-11-28T12:52:57.350Z,100044.59
2022-11-28T12:55:33.651Z,100034.94
2022-11-28T12:58:10.147Z,100032.59
2022-11-28T13:00:49.387Z,100038.13
2022-11-28T13:03:34.013Z,100026.88
2022-11-28T13:06:16.538Z,100043.63
2022-11-28T13:09:10.587Z,100043.75
2022-11-28T13:11:51.057Z,100042.47
2022-11-28T13:14:30.490Z,100042.28
2022-11-28T13:17:06.993Z,100049.97
2022-11-28T13:19:42.260Z,100051.13
2022-11-28T13:22:15.993Z,100051.56
2022-11-28T13:24:52.695Z,100049.41
2022-11-28T13:27:32.684Z,100049.63
2022-11-28T13:30:13.732Z,100047.63
2022-11-28T13:32:48.047Z,100032.38
2022-11-28T13:35:18.855Z,100035.28
2022-11-28T13:40:49.790Z,100034.69
2022-11-28T13:43:25.652Z,100039.47
2022-11-28T13:45:54.312Z,100030.47
2022-11-28T13:49:19.629Z,100029.19
2022-11-28T13:51:49.218Z,100032.56
2022-11-28T13:54:45.706Z,100028.00
2022-11-28T13:57:23.146Z,100027.63
2022-11-28T13:59:58.324Z,100028.09
2022-11-28T14:02:37.441Z,100024.88
2022-11-28T14:05:19.958Z,100025.09
2022-11-28T14:07:51.596Z,100018.31
2022-11-28T14:10:41.894Z,100021.06
2022-11-28T14:13:30.931Z,100019.66
2022-11-28T14:16:14.922Z,100028.00
2022-11-28T14:19:01.680Z,100019.91
2022-11-28T14:21:42.179Z,100020.50
2022-11-28T14:24:17.574Z,100024.81
2022-11-28T14:26:46.110Z,100026.81
2022-11-28T14:29:26.343Z,100033.50
2022-11-28T14:32:27.879Z,100028.91
2022-11-28T14:34:47.296Z,100034.28
2022-11-28T14:37:48.936Z,100028.72
2022-11-28T14:40:53.419Z,100032.19
2022-11-28T14:43:29.429Z,100028.34
2022-11-28T14:46:29.695Z,100028.16
2022-11-28T14:49:21.134Z,100025.25
2022-11-28T14:52:37.609Z,100017.91
2022-11-28T14:55:22.903Z,100022.81
2022-11-28T14:57:59.252Z,100021.41
2022-11-28T15:00:29.671Z,100028.81
2022-11-28T15:03:28.754Z,100028.00
2022-11-28T15:06:02.354Z,100021.03
2022-11-28T15:08:45.581Z,100023.03
2022-11-28T15:11:23.410Z,100025.91
2022-11-28T15:14:09.196Z,100025.81
2022-11-28T15:16:45.134Z,100016.25
2022-11-28T15:19:24.904Z,100013.88
2022-11-28T15:21:54.655Z,100026.00
2022-11-28T15:24:29.846Z,100017.88
2022-11-28T15:26:59.988Z,100013.09
2022-11-28T15:29:30.226Z,100020.09
2022-11-28T15:31:59.641Z,100019.50
2022-11-28T15:34:32.205Z,100018.69
2022-11-28T15:37:02.437Z,100021.06
2022-11-28T15:39:36.098Z,100020.28
2022-11-28T15:42:06.859Z,100013.72
2022-11-28T15:44:36.788Z,100021.78
2022-11-28T15:47:05.299Z,100021.78
2022-11-28T15:49:41.227Z,100022.09
2022-11-28T15:52:17.469Z,100023.50
2022-11-28T15:54:46.682Z,100027.66
2022-11-28T15:57:25.178Z,100031.75
2022-11-28T15:59:53.658Z,100021.59
2022-11-28T16:02:26.843Z,100023.28
2022-11-28T16:05:03.784Z,100015.53
2022-11-28T16:07:32.289Z,100020.72
2022-11-28T16:10:03.906Z,100024.19
2022-11-28T16:12:32.260Z,100015.63
2022-11-28T16:15:03.701Z,100017.31
2022-11-28T16:17:34.677Z,100018.31
2022-11-28T16:20:05.179Z,100024.91
2022-11-28T16:22:37.919Z,100019.03
2022-11-28T16:25:15.415Z,100015.75
2022-11-28T16:27:47.502Z,100020.59
2022-11-28T16:30:36.710Z,100011.75
2022-11-28T16:33:25.742Z,100013.63
2022-11-28T16:36:08.968Z,100014.53
2022-11-28T16:38:37.443Z,100017.13
2022-11-28T16:41:05.867Z,100019.91
2022-11-28T16:43:36.974Z,100027.50
2022-11-28T16:46:07.997Z,100019.81
2022-11-28T16:48:38.367Z,100022.22
2022-11-28T16:51:36.139Z,100023.09
2022-11-28T16:54:29.025Z,100026.69
2022-11-28T16:57:11.682Z,100027.38
2022-11-28T16:59:39.901Z,100024.22
2022-11-28T17:02:16.629Z,100030.47
2022-11-28T17:04:45.380Z,100026.59
2022-11-28T17:07:17.536Z,100022.91
2022-11-28T17:09:47.436Z,100023.72
2022-11-28T17:12:22.703Z,100021.44
2022-11-28T17:14:50.787Z,100022.22
2022-11-28T17:17:20.700Z,100018.84
2022-11-28T17:19:48.810Z,100017.53
2022-11-28T17:22:21.099Z,100020.44
2022-11-28T17:24:50.252Z,100015.66
2022-11-28T17:27:18.518Z,100018.94
2022-11-28T17:29:46.731Z,100016.44
2022-11-28T17:32:15.632Z,100016.63
2022-11-28T17:34:46.880Z,100016.06
2022-11-28T17:37:17.718Z,100019.81
2022-11-28T17:40:06.263Z,100021.63
2022-11-28T17:42:34.310Z,100017.91
2022-11-28T17:45:02.376Z,100011.75
2022-11-28T17:47:30.527Z,100015.84
2022-11-28T17:49:58.890Z,100015.47
2022-11-28T17:52:30.356Z,100009.31
2022-11-28T17:55:06.865Z,100011.28
2022-11-28T17:57:35.654Z,100004.41
2022-11-28T18:00:06.677Z,100005.19
2022-11-28T18:02:35.124Z,99997.16
2022-11-28T18:05:03.375Z,100006.63
2022-11-28T18:07:33.199Z,100009.09
2022-11-28T18:10:01.304Z,100001.03
2022-11-28T18:12:29.335Z,99982.03
2022-11-28T18:14:59.112Z,99984.53
2022-11-28T18:17:27.085Z,99982.75
2022-11-28T18:19:57.717Z,99989.22
2022-11-28T18:22:26.140Z,99999.84
2022-11-28T18:24:55.573Z,99993.75
2022-11-28T18:27:23.821Z,99990.88
2022-11-28T18:29:52.606Z,99998.25
2022-11-28T18:32:20.683Z,100000.41
2022-11-28T18:34:48.758Z,99999.13
2022-11-28T18:37:16.867Z,99997.84
2022-11-28T18:39:45.082Z,99991.38
2022-11-28T18:42:14.667Z,99993.75
2022-11-28T18:44:42.756Z,99995.38
2022-11-28T18:47:13.168Z,99990.28
2022-11-28T18:49:41.884Z,99991.66
2022-11-28T18:52:10.234Z,99990.59
2022-11-28T18:54:38.857Z,99985.81
2022-11-28T18:57:08.725Z,99982.13
2022-11-28T18:59:38.196Z,99987.50
2022-11-28T19:02:06.364Z,99974.41
2022-11-28T19:04:34.414Z,99986.03
2022-11-28T19:07:04.214Z,99992.78
2022-11-28T19:09:32.661Z,99984.22
2022-11-28T19:12:00.736Z,99983.72
2022-11-28T19:14:28.889Z,99989.69
2022-11-28T19:16:58.419Z,100005.19
2022-11-28T19:19:26.572Z,100000.03
2022-11-28T19:21:54.893Z,99996.06
2022-11-28T19:24:23.254Z,99995.03
2022-11-28T19:26:51.685Z,99996.53
2022-11-28T19:29:20.056Z,99999.50
2022-11-28T19:31:48.188Z,99995.34
2022-11-28T19:34:20.527Z,99994.78
2022-11-28T19:36:50.987Z,99988.69
2022-11-28T19:39:22.400Z,99996.44
2022-11-28T19:41:51.430Z,99997.75
2022-11-28T19:44:21.024Z,99998.16
2022-11-28T19:46:50.417Z,99995.56
2022-11-28T19:49:22.378Z,99994.88
2022-11-28T19:51:52.248Z,99991.47
2022-11-28T19:54:21.909Z,99995.25
2022-11-28T19:56:50.698Z,100000.03
2022-11-28T19:59:19.425Z,100004.91
2022-11-28T20:01:49.916Z,100002.03
2022-11-28T20:04:38.145Z,100002.91
2022-11-28T20:07:06.164Z,100004.00
2022-11-28T20:09:34.187Z,100005.06
2022-11-28T20:12:02.256Z,100011.75
2022-11-28T20:14:32.333Z,100009.56
2022-11-28T20:17:01.135Z,100003.09
2022-11-28T20:19:29.394Z,100001.41
2022-11-28T20:22:00.671Z,99998.22
2022-11-28T20:24:30.456Z,100000.13
2022-11-28T20:26:58.654Z,100000.72
2022-11-28T20:29:28.054Z,100003.41
2022-11-28T20:31:57.432Z,100002.03
2022-11-28T20:34:26.979Z,99996.16
2022-11-28T20:36:55.319Z,100010.34
2022-11-28T20:39:25.025Z,100012.66
2022-11-28T20:41:53.083Z,100011.97
2022-11-28T20:44:21.480Z,100008.78
2022-11-28T20:46:50.106Z,100015.22
2022-11-28T20:49:18.711Z,100015.72
2022-11-28T20:51:48.349Z,100004.09
2022-11-28T20:54:16.485Z,100008.19
2022-11-28T20:57:13.278Z,100008.19
2022-11-28T20:59:35.844Z,100008.47
2022-11-28T21:02:04.102Z,100005.91
2022-11-28T21:04:33.042Z,99999.63
2022-11-28T21:07:01.118Z,100002.81
2022-11-28T21:09:29.340Z,100005.19
2022-11-28T21:11:59.601Z,100002.72
2022-11-28T21:14:29.419Z,99999.53
2022-11-28T21:16:58.826Z,99992.25
2022-11-28T21:19:27.202Z,99997.63
2022-11-28T21:21:55.409Z,99986.91
2022-11-28T21:24:23.614Z,99985.81
2022-11-28T21:26:54.446Z,99989.31
2022-11-28T21:29:25.202Z,99991.19
2022-11-28T21:31:53.416Z,99990.50
2022-11-28T21:34:22.511Z,99992.94
2022-11-28T21:36:50.592Z,99982.72
2022-11-28T21:39:20.685Z,99984.31
2022-11-28T21:41:49.179Z,99986.72
2022-11-28T21:44:17.410Z,99987.50
2022-11-28T21:46:46.729Z,99988.28
2022-11-28T21:49:14.752Z,99983.72
2022-11-28T21:51:42.855Z,99985.00
2022-11-28T21:54:11.700Z,99987.50
2022-11-28T21:56:40.098Z,99989.69
2022-11-28T21:59:08.262Z,99983.31
2022-11-28T22:01:36.365Z,99980.13
2022-11-28T22:04:06.298Z,99975.88
2022-11-28T22:06:34.593Z,99971.19
2022-11-28T22:09:09.213Z,99980.31
2022-11-28T22:11:38.363Z,99974.69
2022-11-28T22:14:06.745Z,99968.81
2022-11-28T22:16:34.833Z,99964.03
2022-11-28T22:19:03.188Z,99964.34
2022-11-28T22:24:21.213Z,99966.22
2022-11-28T22:26:49.314Z,99953.91
2022-11-28T22:29:17.466Z,99957.09
2022-11-28T22:31:45.810Z,99959.97
2022-11-28T22:34:14.040Z,99957.28
2022-11-28T22:36:43.432Z,99950.94
2022-11-28T22:39:12.610Z,99956.06
2022-11-28T22:41:40.847Z,99954.50
2022-11-28T22:44:08.909Z,99964.63
2022-11-28T22:46:37.174Z,99951.13
2022-11-28T22:49:05.350Z,99949.94
2022-11-28T22:51:33.651Z,99948.53
2022-11-28T22:54:04.223Z,99948.25
2022-11-28T22:56:34.472Z,99934.94
2022-11-28T22:59:05.106Z,99936.22
2022-11-28T23:01:34.403Z,99927.16
2022-11-28T23:04:02.412Z,99924.97
2022-11-28T23:06:32.399Z,99925.47
2022-11-28T23:09:03.505Z,99920.41
2022-11-28T23:11:34.305Z,99916.53
2022-11-28T23:14:04.457Z,99916.25
2022-11-28T23:16:34.499Z,99924.66
2022-11-28T23:19:05.132Z,99919.63
2022-11-28T23:21:34.715Z,99917.72
2022-11-28T23:24:04.444Z,99916.25
2022-11-28T23:26:33.435Z,99914.94
2022-11-28T23:29:02.906Z,99910.69
2022-11-28T23:31:32.689Z,99909.47
2022-11-28T23:34:02.118Z,99905.69
2022-11-28T23:36:36.967Z,99909.28
2022-11-28T23:39:12.605Z,99908.97
2022-11-28T23:41:41.081Z,99895.56
2022-11-28T23:44:11.608Z,99899.72
2022-11-28T23:46:40.506Z,99902.03
2022-11-28T23:49:09.186Z,99898.34
2022-11-28T23:51:38.175Z,99904.03
2022-11-28T23:54:06.278Z,99899.25
2022-11-28T23:56:38.222Z,99903.09
2022-11-28T23:59:08.008Z,99891.19
